createdAt,value
2023-05-04T00:00:20.220Z,80.17
2023-05-04T00:02:49.270Z,79.98
2023-05-04T00:05:18.118Z,79.74
2023-05-04T00:07:47.715Z,79.74
2023-05-04T00:10:18.070Z,80.02
2023-05-04T00:12:47.539Z,80.40
2023-05-04T00:15:16.768Z,80.10
2023-05-04T00:17:45.594Z,80.16
2023-05-04T00:20:15.026Z,80.86
2023-05-04T00:22:44.325Z,80.46
2023-05-04T00:25:13.304Z,80.62
2023-05-04T00:27:43.364Z,80.65
2023-05-04T00:30:13.884Z,80.19
2023-05-04T00:32:42.503Z,80.73
2023-05-04T00:35:11.649Z,80.24
2023-05-04T00:37:40.688Z,80.50
2023-05-04T00:40:11.610Z,80.83
2023-05-04T00:42:40.526Z,80.36
2023-05-04T00:45:11.785Z,80.49
2023-05-04T00:47:41.402Z,80.76
2023-05-04T00:50:11.585Z,80.55
2023-05-04T00:52:42.762Z,80.74
2023-05-04T00:55:12.924Z,80.47
2023-05-04T00:57:42.669Z,80.65
2023-05-04T01:00:13.917Z,80.68
2023-05-04T01:02:43.186Z,80.71
2023-05-04T01:05:13.640Z,80.78
2023-05-04T01:07:54.123Z,80.67
2023-05-04T01:10:31.394Z,80.36
2023-05-04T01:13:05.576Z,80.48
2023-05-04T01:15:36.858Z,81.04
2023-05-04T01:18:05.777Z,81.16
2023-05-04T01:20:35.116Z,81.45
2023-05-04T01:23:05.956Z,81.09
2023-05-04T01:25:41.069Z,81.39
2023-05-04T01:28:15.897Z,81.04
2023-05-04T01:30:46.497Z,81.22
2023-05-04T01:33:17.791Z,81.24
2023-05-04T01:35:47.243Z,81.61
2023-05-04T01:38:17.485Z,81.56
2023-05-04T01:40:46.777Z,81.72
2023-05-04T01:43:15.496Z,81.42
2023-05-04T01:45:44.689Z,81.50
2023-05-04T01:48:14.597Z,81.16
2023-05-04T01:50:43.514Z,81.48
2023-05-04T01:53:12.244Z,81.29
2023-05-04T01:55:42.485Z,80.75
2023-05-04T01:58:11.216Z,81.57
2023-05-04T02:00:40.318Z,81.36
2023-05-04T02:03:09.782Z,81.08
2023-05-04T02:05:38.795Z,81.56
2023-05-04T02:08:07.870Z,81.26
2023-05-04T02:10:36.653Z,81.37
2023-05-04T02:13:06.990Z,81.08
2023-05-04T02:15:36.125Z,81.40
2023-05-04T02:18:05.109Z,81.75
2023-05-04T02:20:34.041Z,81.35
2023-05-04T02:23:02.842Z,81.17
2023-05-04T02:25:32.688Z,81.64
2023-05-04T02:28:01.471Z,81.85
2023-05-04T02:30:31.743Z,81.34
2023-05-04T02:33:00.742Z,81.74
2023-05-04T02:35:29.862Z,81.42
2023-05-04T02:37:58.750Z,81.63
2023-05-04T02:40:27.742Z,81.81
2023-05-04T02:42:56.603Z,81.77
2023-05-04T02:45:25.421Z,82.09
2023-05-04T02:47:55.811Z,81.92
2023-05-04T02:50:24.776Z,82.03
2023-05-04T02:52:53.557Z,81.83
2023-05-04T02:55:22.585Z,82.03
2023-05-04T02:57:51.313Z,82.43
2023-05-04T03:00:20.414Z,82.34
2023-05-04T03:02:49.261Z,82.59
2023-05-04T03:05:19.694Z,82.50
2023-05-04T03:07:48.716Z,82.52
2023-05-04T03:10:17.623Z,83.02
2023-05-04T03:12:46.758Z,82.43
2023-05-04T03:15:15.615Z,83.04
2023-05-04T03:17:44.998Z,83.05
2023-05-04T03:20:14.938Z,82.90
2023-05-04T03:22:46.070Z,82.94
2023-05-04T03:25:15.080Z,82.61
2023-05-04T03:27:43.966Z,83.02
2023-05-04T03:30:14.512Z,82.62
2023-05-04T03:32:46.790Z,82.30
2023-05-04T03:35:20.953Z,81.85
2023-05-04T03:37:54.713Z,81.64
2023-05-04T03:40:24.660Z,81.36
2023-05-04T03:42:56.011Z,80.99
2023-05-04T03:45:28.610Z,80.86
2023-05-04T03:47:59.723Z,81.15
2023-05-04T03:50:30.227Z,80.38
2023-05-04T03:53:00.444Z,80.06
2023-05-04T03:55:30.545Z,80.44
2023-05-04T03:57:59.550Z,80.38
2023-05-04T04:00:28.904Z,79.84
2023-05-04T04:03:09.193Z,79.63
2023-05-04T04:05:39.289Z,79.38
2023-05-04T04:08:09.657Z,79.45
2023-05-04T04:10:38.944Z,79.53
2023-05-04T04:13:07.851Z,78.98
2023-05-04T04:15:36.811Z,79.29
2023-05-04T04:18:05.856Z,79.10
2023-05-04T04:20:34.876Z,79.34
2023-05-04T04:23:04.252Z,78.94
2023-05-04T04:25:34.564Z,79.01
2023-05-04T04:28:03.648Z,79.06
2023-05-04T04:30:32.508Z,79.01
2023-05-04T04:33:01.434Z,79.30
2023-05-04T04:35:30.164Z,79.25
2023-05-04T04:37:59.917Z,79.04
2023-05-04T04:40:30.185Z,78.90
2023-05-04T04:43:00.440Z,78.69
2023-05-04T04:45:30.505Z,78.83
2023-05-04T04:48:01.247Z,78.48
2023-05-04T04:50:31.028Z,78.43
2023-05-04T04:53:00.076Z,78.36
2023-05-04T04:55:28.950Z,78.07
2023-05-04T04:57:57.778Z,78.03
2023-05-04T05:00:28.336Z,77.62
2023-05-04T05:02:57.311Z,77.54
2023-05-04T05:05:26.192Z,76.98
2023-05-04T05:07:55.021Z,76.55
2023-05-04T05:10:24.004Z,76.44
2023-05-04T05:12:53.012Z,76.21
2023-05-04T05:15:21.750Z,75.99
2023-05-04T05:17:52.127Z,75.50
2023-05-04T05:20:21.625Z,75.13
2023-05-04T05:22:51.979Z,74.77
2023-05-04T05:25:21.177Z,73.92
2023-05-04T05:27:50.141Z,73.50
2023-05-04T05:30:19.409Z,72.90
2023-05-04T05:32:49.370Z,72.06
2023-05-04T05:35:20.131Z,71.46
2023-05-04T05:37:50.748Z,70.70
2023-05-04T05:40:19.763Z,70.48
2023-05-04T05:42:48.527Z,70.26
2023-05-04T05:45:17.543Z,69.66
2023-05-04T05:47:46.456Z,69.44
2023-05-04T05:50:15.493Z,68.91
2023-05-04T05:52:45.756Z,68.91
2023-05-04T05:55:14.605Z,68.62
2023-05-04T05:57:43.371Z,67.58
2023-05-04T06:00:13.424Z,67.25
2023-05-04T06:02:43.810Z,67.00
2023-05-04T06:05:12.906Z,66.55
2023-05-04T06:07:41.758Z,65.82
2023-05-04T06:10:12.601Z,65.60
2023-05-04T06:12:41.334Z,65.19
2023-05-04T06:15:10.822Z,65.28
2023-05-04T06:17:39.314Z,65.43
2023-05-04T06:20:09.322Z,65.26
2023-05-04T06:22:38.185Z,65.26
2023-05-04T06:25:08.346Z,64.80
2023-05-04T06:27:39.102Z,64.87
2023-05-04T06:30:09.248Z,64.39
2023-05-04T06:32:38.636Z,64.57
2023-05-04T06:35:09.242Z,64.24
2023-05-04T06:37:38.116Z,64.54
2023-05-04T06:40:08.629Z,64.10
2023-05-04T06:42:39.332Z,63.18
2023-05-04T06:45:09.751Z,63.22
2023-05-04T06:47:38.803Z,62.64
2023-05-04T06:50:12.026Z,63.02
2023-05-04T06:52:42.244Z,63.03
2023-05-04T06:55:11.472Z,61.66
2023-05-04T06:57:41.700Z,61.85
2023-05-04T07:00:11.945Z,61.26
2023-05-04T07:02:40.784Z,61.37
2023-05-04T07:05:10.148Z,61.36
2023-05-04T07:07:39.036Z,61.43
2023-05-04T07:10:08.466Z,60.80
2023-05-04T07:12:37.813Z,60.79
2023-05-04T07:15:09.329Z,60.68
2023-05-04T07:17:38.708Z,60.24
2023-05-04T07:20:08.573Z,60.25
2023-05-04T07:22:37.416Z,59.62
2023-05-04T07:25:07.090Z,60.09
2023-05-04T07:27:36.841Z,59.83
2023-05-04T07:30:08.395Z,60.45
2023-05-04T07:32:37.195Z,60.19
2023-05-04T07:35:07.083Z,59.66
2023-05-04T07:37:35.567Z,59.46
2023-05-04T07:40:06.306Z,59.44
2023-05-04T07:42:35.933Z,58.91
2023-05-04T07:45:04.849Z,58.59
2023-05-04T07:47:35.102Z,58.32
2023-05-04T07:50:04.316Z,58.41
2023-05-04T07:52:33.468Z,58.08
2023-05-04T07:55:02.243Z,57.94
2023-05-04T07:57:32.735Z,58.33
2023-05-04T08:00:02.020Z,58.10
2023-05-04T08:02:30.875Z,58.04
2023-05-04T08:05:01.549Z,58.54
2023-05-04T08:07:30.264Z,57.91
2023-05-04T08:09:59.109Z,57.58
2023-05-04T08:12:28.321Z,57.08
2023-05-04T08:14:57.039Z,56.92
2023-05-04T08:17:25.908Z,56.61
2023-05-04T08:19:55.189Z,56.52
2023-05-04T08:22:27.218Z,56.31
2023-05-04T08:24:57.196Z,56.77
2023-05-04T08:27:25.958Z,56.62
2023-05-04T08:29:54.853Z,56.45
2023-05-04T08:32:24.012Z,56.14
2023-05-04T08:34:52.974Z,55.86
2023-05-04T08:37:22.438Z,55.41
2023-05-04T08:39:52.741Z,55.23
2023-05-04T08:42:33.703Z,55.22
2023-05-04T08:45:03.285Z,54.58
2023-05-04T08:47:32.213Z,54.70
2023-05-04T08:50:01.216Z,54.89
2023-05-04T08:52:30.195Z,55.01
2023-05-04T08:55:01.265Z,54.81
2023-05-04T08:57:31.373Z,54.45
2023-05-04T09:00:02.046Z,54.20
2023-05-04T09:02:31.554Z,54.28
2023-05-04T09:05:00.144Z,54.56
2023-05-04T09:07:29.100Z,53.60
2023-05-04T09:09:59.391Z,52.84
2023-05-04T09:12:28.946Z,53.05
2023-05-04T09:14:58.890Z,52.92
2023-05-04T09:17:29.548Z,52.59
2023-05-04T09:20:02.483Z,52.11
2023-05-04T09:22:32.191Z,52.25
2023-05-04T09:25:14.624Z,52.42
2023-05-04T09:27:54.942Z,52.35
2023-05-04T09:30:24.054Z,51.91
2023-05-04T09:32:53.197Z,53.16
2023-05-04T09:35:33.811Z,52.19
2023-05-04T09:38:04.277Z,53.04
2023-05-04T09:40:37.086Z,53.33
2023-05-04T09:43:06.977Z,52.03
2023-05-04T09:45:42.911Z,51.06
2023-05-04T09:48:19.213Z,51.56
2023-05-04T09:50:53.874Z,51.54
2023-05-04T09:53:25.376Z,50.34
2023-05-04T09:56:08.282Z,49.98
2023-05-04T09:58:37.700Z,48.99
2023-05-04T10:01:07.273Z,48.98
2023-05-04T10:03:36.742Z,48.73
2023-05-04T10:06:09.406Z,48.86
2023-05-04T10:08:40.431Z,48.19
2023-05-04T10:11:10.716Z,48.46
2023-05-04T10:13:39.702Z,48.41
2023-05-04T10:16:22.013Z,48.22
2023-05-04T10:19:09.301Z,47.96
2023-05-04T10:21:50.372Z,48.12
2023-05-04T10:24:39.163Z,49.73
2023-05-04T10:27:13.858Z,51.41
2023-05-04T10:29:44.392Z,50.46
2023-05-04T10:32:20.788Z,50.90
2023-05-04T10:34:49.875Z,51.25
2023-05-04T10:37:20.112Z,49.30
2023-05-04T10:39:56.015Z,48.47
2023-05-04T10:42:26.542Z,48.53
2023-05-04T10:44:57.168Z,47.70
2023-05-04T10:47:32.635Z,47.12
2023-05-04T10:50:07.057Z,47.48
2023-05-04T10:52:48.385Z,47.06
2023-05-04T10:55:19.420Z,47.11
2023-05-04T10:57:51.239Z,47.23
2023-05-04T11:00:20.619Z,46.53
2023-05-04T11:02:50.541Z,45.48
2023-05-04T11:05:20.602Z,46.15
2023-05-04T11:07:53.617Z,46.22
2023-05-04T11:10:24.255Z,45.59
2023-05-04T11:13:05.738Z,44.83
2023-05-04T11:15:45.659Z,45.24
2023-05-04T11:18:14.515Z,46.95
2023-05-04T11:20:43.915Z,47.71
2023-05-04T11:23:17.724Z,48.48
2023-05-04T11:25:46.659Z,48.83
2023-05-04T11:28:17.035Z,48.83
2023-05-04T11:30:47.952Z,48.79
2023-05-04T11:33:17.413Z,48.23
2023-05-04T11:35:46.738Z,47.89
2023-05-04T11:38:20.266Z,47.16
2023-05-04T11:40:49.928Z,47.03
2023-05-04T11:43:21.230Z,46.77
2023-05-04T11:45:50.611Z,46.39
2023-05-04T11:48:19.552Z,46.78
2023-05-04T11:50:49.254Z,46.87
2023-05-04T11:53:21.872Z,46.13
2023-05-04T11:55:52.829Z,46.56
2023-05-04T11:58:28.888Z,45.88
2023-05-04T12:00:59.192Z,45.31
2023-05-04T12:03:43.904Z,45.82
2023-05-04T12:06:17.978Z,46.39
2023-05-04T12:08:46.853Z,47.88
2023-05-04T12:11:17.589Z,47.07
2023-05-04T12:13:49.345Z,47.68
2023-05-04T12:16:20.592Z,47.68
2023-05-04T12:18:49.697Z,47.47
2023-05-04T12:21:20.310Z,47.09
2023-05-04T12:23:49.568Z,46.97
2023-05-04T12:26:19.798Z,46.95
2023-05-04T12:28:50.529Z,46.65
2023-05-04T12:31:19.481Z,46.35
2023-05-04T12:33:48.310Z,46.60
2023-05-04T12:36:17.457Z,46.42
2023-05-04T12:38:46.291Z,45.45
2023-05-04T12:41:15.434Z,45.10
2023-05-04T12:43:44.278Z,44.98
2023-05-04T12:46:14.559Z,46.03
2023-05-04T12:48:43.797Z,45.19
2023-05-04T12:51:12.531Z,45.07
2023-05-04T12:53:42.009Z,44.10
2023-05-04T12:56:10.449Z,45.25
2023-05-04T12:58:39.310Z,45.04
2023-05-04T13:01:08.194Z,44.57
2023-05-04T13:03:38.626Z,44.31
2023-05-04T13:06:08.072Z,44.09
2023-05-04T13:08:37.034Z,44.15
2023-05-04T13:11:05.858Z,43.95
2023-05-04T13:13:35.528Z,45.99
2023-05-04T13:16:06.231Z,46.38
2023-05-04T13:18:35.212Z,45.44
2023-05-04T13:21:05.741Z,44.09
2023-05-04T13:23:34.647Z,45.76
2023-05-04T13:26:03.422Z,45.72
2023-05-04T13:28:32.356Z,44.85
2023-05-04T13:31:01.180Z,44.50
2023-05-04T13:33:30.979Z,44.53
2023-05-04T13:36:02.293Z,45.08
2023-05-04T13:38:32.937Z,43.90
2023-05-04T13:41:02.413Z,45.19
2023-05-04T13:43:31.773Z,44.78
2023-05-04T13:46:04.552Z,44.77
2023-05-04T13:48:34.257Z,44.70
2023-05-04T13:51:05.019Z,45.36
2023-05-04T13:53:35.760Z,45.36
2023-05-04T13:56:04.757Z,45.67
2023-05-04T13:58:33.602Z,45.15
2023-05-04T14:01:02.538Z,45.19
2023-05-04T14:03:33.288Z,45.65
2023-05-04T14:06:02.114Z,45.81
2023-05-04T14:08:30.877Z,46.09
2023-05-04T14:11:01.197Z,46.35
2023-05-04T14:13:29.993Z,45.94
2023-05-04T14:15:59.121Z,45.90
2023-05-04T14:18:32.409Z,45.52
2023-05-04T14:21:01.368Z,45.46
2023-05-04T14:23:30.080Z,46.01
2023-05-04T14:26:00.410Z,45.60
2023-05-04T14:28:29.293Z,45.63
2023-05-04T14:30:59.109Z,45.75
2023-05-04T14:33:27.959Z,46.07
2023-05-04T14:35:56.735Z,46.24
2023-05-04T14:38:25.610Z,46.16
2023-05-04T14:40:55.819Z,46.07
2023-05-04T14:43:26.182Z,46.74
2023-05-04T14:45:56.842Z,47.29
2023-05-04T14:48:27.735Z,47.69
2023-05-04T14:50:57.147Z,47.22
2023-05-04T14:53:25.814Z,47.41
2023-05-04T14:55:54.541Z,47.09
2023-05-04T14:58:23.372Z,46.96
2023-05-04T15:00:54.855Z,46.96
2023-05-04T15:03:24.454Z,45.92
2023-05-04T15:05:53.315Z,46.16
2023-05-04T15:08:22.318Z,46.27
2023-05-04T15:10:51.080Z,46.99
2023-05-04T15:13:20.221Z,47.26
2023-05-04T15:15:49.109Z,47.32
2023-05-04T15:18:21.036Z,47.36
2023-05-04T15:20:50.003Z,47.56
2023-05-04T15:23:18.930Z,47.84
2023-05-04T15:25:47.989Z,47.70
2023-05-04T15:28:16.773Z,47.38
2023-05-04T15:30:45.718Z,47.78
2023-05-04T15:33:14.443Z,48.02
2023-05-04T15:35:44.803Z,47.90
2023-05-04T15:38:13.694Z,47.46
2023-05-04T15:40:42.468Z,47.22
2023-05-04T15:43:11.383Z,47.24
2023-05-04T15:45:40.155Z,47.58
2023-05-04T15:48:09.353Z,47.60
2023-05-04T15:50:38.039Z,47.63
2023-05-04T15:53:08.266Z,47.67
2023-05-04T15:55:37.118Z,47.41
2023-05-04T15:58:06.297Z,47.09
2023-05-04T16:00:35.456Z,47.17
2023-05-04T16:03:04.251Z,47.65
2023-05-04T16:05:33.335Z,49.07
2023-05-04T16:08:02.951Z,50.48
2023-05-04T16:10:33.433Z,51.37
2023-05-04T16:13:04.413Z,51.68
2023-05-04T16:15:33.541Z,51.91
2023-05-04T16:18:02.430Z,51.95
2023-05-04T16:20:31.515Z,52.20
2023-05-04T16:23:00.454Z,52.96
2023-05-04T16:25:29.217Z,53.93
2023-05-04T16:27:59.483Z,54.89
2023-05-04T16:30:32.873Z,55.43
2023-05-04T16:33:02.488Z,55.59
2023-05-04T16:35:31.318Z,55.55
2023-05-04T16:38:00.436Z,56.15
2023-05-04T16:40:29.798Z,56.87
2023-05-04T16:43:00.094Z,58.14
2023-05-04T16:45:31.995Z,58.67
2023-05-04T16:48:01.264Z,59.57
2023-05-04T16:50:30.434Z,59.97
2023-05-04T16:52:59.596Z,60.01
2023-05-04T16:55:28.298Z,59.73
2023-05-04T16:57:57.961Z,59.63
2023-05-04T17:00:27.944Z,59.85
2023-05-04T17:02:56.866Z,59.91
2023-05-04T17:05:25.582Z,60.57
2023-05-04T17:07:54.586Z,61.44
2023-05-04T17:10:25.176Z,61.94
2023-05-04T17:12:54.918Z,62.36
2023-05-04T17:15:24.046Z,63.05
2023-05-04T17:17:55.862Z,62.83
2023-05-04T17:20:28.881Z,62.62
2023-05-04T17:22:59.235Z,62.65
2023-05-04T17:25:28.418Z,62.59
2023-05-04T17:27:57.426Z,62.54
2023-05-04T17:30:26.763Z,62.99
2023-05-04T17:32:57.577Z,63.40
2023-05-04T17:35:26.826Z,63.79
2023-05-04T17:37:58.412Z,64.14
2023-05-04T17:40:29.018Z,64.83
2023-05-04T17:42:57.694Z,65.21
2023-05-04T17:45:26.542Z,65.18
2023-05-04T17:47:57.414Z,65.42
2023-05-04T17:50:26.970Z,65.76
2023-05-04T17:52:56.852Z,66.50
2023-05-04T17:55:25.983Z,67.22
2023-05-04T17:57:55.446Z,68.27
2023-05-04T18:00:24.322Z,68.83
2023-05-04T18:02:53.154Z,68.62
2023-05-04T18:05:23.384Z,68.56
2023-05-04T18:07:52.733Z,68.27
2023-05-04T18:10:21.729Z,68.18
2023-05-04T18:12:50.700Z,68.30
2023-05-04T18:15:19.564Z,68.54
2023-05-04T18:17:49.346Z,68.37
2023-05-04T18:20:17.984Z,68.44
2023-05-04T18:22:48.244Z,67.85
2023-05-04T18:25:17.044Z,67.63
2023-05-04T18:27:46.059Z,67.73
2023-05-04T18:30:16.354Z,68.17
2023-05-04T18:32:45.288Z,67.89
2023-05-04T18:35:14.113Z,68.30
2023-05-04T18:37:43.372Z,68.41
2023-05-04T18:40:14.581Z,68.80
2023-05-04T18:42:43.412Z,69.05
2023-05-04T18:45:13.205Z,68.83
2023-05-04T18:47:42.067Z,69.51
2023-05-04T18:50:11.828Z,69.96
2023-05-04T18:52:40.850Z,69.96
2023-05-04T18:55:10.363Z,69.43
2023-05-04T18:57:41.146Z,69.87
2023-05-04T19:00:11.745Z,69.79
2023-05-04T19:02:41.056Z,70.19
2023-05-04T19:05:12.910Z,70.33
2023-05-04T19:07:43.487Z,70.19
2023-05-04T19:10:12.678Z,70.30
2023-05-04T19:12:43.072Z,70.35
2023-05-04T19:15:12.146Z,70.98
2023-05-04T19:17:41.156Z,71.12
2023-05-04T19:20:10.722Z,71.32
2023-05-04T19:22:39.873Z,71.50
2023-05-04T19:25:11.053Z,72.23
2023-05-04T19:27:42.554Z,72.79
2023-05-04T19:30:11.648Z,72.69
2023-05-04T19:32:40.496Z,73.19
2023-05-04T19:35:09.691Z,73.19
2023-05-04T19:37:38.478Z,72.50
2023-05-04T19:40:09.332Z,73.04
2023-05-04T19:42:40.020Z,72.68
2023-05-04T19:45:11.226Z,71.97
2023-05-04T19:47:40.094Z,72.05
2023-05-04T19:50:11.186Z,71.40
2023-05-04T19:52:40.177Z,71.52
2023-05-04T19:55:10.170Z,71.06
2023-05-04T19:57:39.514Z,70.99
2023-05-04T20:00:11.144Z,70.71
2023-05-04T20:02:42.970Z,70.57
2023-05-04T20:05:12.493Z,70.53
2023-05-04T20:07:41.269Z,70.54
2023-05-04T20:10:10.316Z,70.81
2023-05-04T20:12:39.023Z,70.84
2023-05-04T20:15:10.050Z,71.47
2023-05-04T20:17:38.837Z,71.38
2023-05-04T20:20:08.855Z,71.08
2023-05-04T20:22:38.475Z,71.24
2023-05-04T20:25:08.319Z,71.34
2023-05-04T20:27:38.534Z,71.19
2023-05-04T20:30:11.911Z,71.41
2023-05-04T20:32:40.904Z,71.77
2023-05-04T20:35:10.287Z,71.90
2023-05-04T20:37:39.239Z,72.17
2023-05-04T20:40:09.672Z,72.09
2023-05-04T20:42:38.629Z,72.09
2023-05-04T20:45:08.701Z,72.50
2023-05-04T20:47:38.965Z,72.49
2023-05-04T20:50:10.536Z,72.88
2023-05-04T20:52:39.780Z,73.03
2023-05-04T20:55:09.413Z,73.17
2023-05-04T20:57:39.011Z,72.99
2023-05-04T21:00:09.631Z,73.29
2023-05-04T21:02:40.119Z,73.56
2023-05-04T21:05:09.873Z,73.29
2023-05-04T21:07:38.665Z,73.41
2023-05-04T21:10:08.990Z,73.49
2023-05-04T21:12:37.878Z,73.96
2023-05-04T21:15:07.436Z,74.14
2023-05-04T21:17:36.335Z,74.27
2023-05-04T21:20:07.934Z,74.32
2023-05-04T21:22:37.316Z,74.40
2023-05-04T21:25:06.642Z,74.50
2023-05-04T21:27:36.521Z,74.51
2023-05-04T21:30:07.459Z,74.73
2023-05-04T21:32:36.648Z,74.63
2023-05-04T21:35:08.054Z,74.62
2023-05-04T21:37:36.963Z,74.63
2023-05-04T21:40:06.722Z,74.81
2023-05-04T21:42:35.913Z,74.63
2023-05-04T21:45:04.876Z,74.62
2023-05-04T21:47:34.076Z,74.42
2023-05-04T21:50:04.304Z,74.50
2023-05-04T21:52:34.818Z,74.46
2023-05-04T21:55:03.634Z,74.46
2023-05-04T21:57:33.740Z,74.62
2023-05-04T22:00:02.841Z,74.60
2023-05-04T22:02:34.650Z,74.44
2023-05-04T22:05:03.623Z,74.62
2023-05-04T22:07:32.630Z,74.67
2023-05-04T22:10:03.273Z,74.62
2023-05-04T22:12:32.198Z,74.67
2023-05-04T22:15:00.982Z,74.46
2023-05-04T22:17:30.043Z,74.46
2023-05-04T22:19:58.688Z,74.16
2023-05-04T22:22:27.598Z,74.29
2023-05-04T22:24:56.562Z,74.03
2023-05-04T22:27:26.885Z,73.83
2023-05-04T22:29:56.625Z,73.69
2023-05-04T22:32:25.415Z,73.72
2023-05-04T22:34:54.285Z,73.63
2023-05-04T22:37:23.006Z,73.94
2023-05-04T22:39:51.849Z,73.70
2023-05-04T22:42:20.678Z,73.68
2023-05-04T22:44:51.459Z,73.78
2023-05-04T22:47:20.306Z,73.86
2023-05-04T22:49:49.370Z,73.86
2023-05-04T22:52:19.187Z,73.45
2023-05-04T22:54:47.813Z,73.67
2023-05-04T22:57:16.909Z,73.35
2023-05-04T22:59:45.764Z,73.73
2023-05-04T23:02:15.890Z,73.50
2023-05-04T23:04:45.631Z,73.07
2023-05-04T23:07:14.745Z,72.94
2023-05-04T23:09:43.843Z,73.28
2023-05-04T23:12:13.243Z,72.84
2023-05-04T23:14:42.123Z,72.69
2023-05-04T23:17:11.132Z,73.01
2023-05-04T23:19:41.606Z,72.97
2023-05-04T23:22:10.523Z,73.60
2023-05-04T23:24:39.263Z,73.47
2023-05-04T23:27:08.351Z,73.63
2023-05-04T23:29:37.161Z,74.01
2023-05-04T23:32:06.648Z,73.89
2023-05-04T23:34:36.138Z,74.13
2023-05-04T23:37:06.398Z,73.96
2023-05-04T23:39:35.236Z,73.84
2023-05-04T23:42:04.591Z,74.36
2023-05-04T23:44:33.314Z,74.32
2023-05-04T23:47:02.076Z,74.93
2023-05-04T23:49:30.784Z,74.58
2023-05-04T23:51:59.666Z,74.73
2023-05-04T23:54:29.943Z,75.22
2023-05-04T23:57:00.114Z,75.04
2023-05-04T23:59:29.069Z,74.79
